sensor_id;sensor_type;location;lat;lon;timestamp;pressure;altitude;pressure_sealevel;temperature;humidity
13800;BME280;6971;50.028;9.258;2023-11-21T00:03:46;98742.75;;;7.00;100.00
13800;BME280;6971;50.028;9.258;2023-11-21T00:08:46;98744.91;;;7.09;100.00
13800;BME280;6971;50.028;9.258;2023-11-21T00:13:46;98744.91;;;7.09;100.00
13800;BME280;6971;50.028;9.258;2023-11-21T00:18:47;98740.00;;;7.21;100.00
13800;BME280;6971;50.028;9.258;2023-11-21T00:23:47;98740.91;;;7.20;100.00
13800;BME280;6971;50.028;9.258;2023-11-21T00:28:48;98745.00;;;7.08;100.00
13800;BME280;6971;50.028;9.258;2023-11-21T00:33:48;98748.31;;;7.11;100.00
13800;BME280;6971;50.028;9.258;2023-11-21T00:38:49;98741.41;;;7.10;100.00
13800;BME280;6971;50.028;9.258;2023-11-21T00:43:49;98735.06;;;7.14;100.00
13800;BME280;6971;50.028;9.258;2023-11-21T00:48:49;98752.09;;;7.23;100.00
13800;BME280;6971;50.028;9.258;2023-11-21T00:53:50;98740.91;;;7.20;100.00
13800;BME280;6971;50.028;9.258;2023-11-21T00:58:50;98740.84;;;7.21;100.00
13800;BME280;6971;50.028;9.258;2023-11-21T01:03:52;98738.59;;;7.13;100.00
13800;BME280;6971;50.028;9.258;2023-11-21T01:08:54;98748.94;;;7.16;100.00
13800;BME280;6971;50.028;9.258;2023-11-21T01:13:54;98750.47;;;7.21;100.00
13800;BME280;6971;50.028;9.258;2023-11-21T01:18:55;98754.16;;;7.16;100.00
13800;BME280;6971;50.028;9.258;2023-11-21T01:23:55;98762.78;;;7.18;100.00
13800;BME280;6971;50.028;9.258;2023-11-21T01:28:55;98764.66;;;7.16;100.00
13800;BME280;6971;50.028;9.258;2023-11-21T01:33:56;98766.13;;;7.22;100.00
13800;BME280;6971;50.028;9.258;2023-11-21T01:38:57;98771.28;;;7.24;100.00
13800;BME280;6971;50.028;9.258;2023-11-21T01:43:59;98765.03;;;7.26;100.00
13800;BME280;6971;50.028;9.258;2023-11-21T01:48:59;98766.72;;;7.27;100.00
13800;BME280;6971;50.028;9.258;2023-11-21T01:54:00;98769.75;;;7.20;100.00
13800;BME280;6971;50.028;9.258;2023-11-21T01:59:00;98758.19;;;7.24;100.00
13800;BME280;6971;50.028;9.258;2023-11-21T02:04:00;98759.00;;;7.24;100.00
13800;BME280;6971;50.028;9.258;2023-11-21T02:09:01;98759.88;;;7.07;100.00
13800;BME280;6971;50.028;9.258;2023-11-21T02:14:02;98765.19;;;7.05;100.00
13800;BME280;6971;50.028;9.258;2023-11-21T02:19:02;98763.72;;;7.17;100.00
13800;BME280;6971;50.028;9.258;2023-11-21T02:24:06;98765.50;;;7.17;100.00
13800;BME280;6971;50.028;9.258;2023-11-21T02:29:06;98776.69;;;7.21;100.00
13800;BME280;6971;50.028;9.258;2023-11-21T02:34:11;98768.88;;;7.19;100.00
13800;BME280;6971;50.028;9.258;2023-11-21T02:39:13;98768.88;;;7.19;100.00
13800;BME280;6971;50.028;9.258;2023-11-21T02:44:13;98774.13;;;7.19;100.00
13800;BME280;6971;50.028;9.258;2023-11-21T02:49:14;98775.06;;;7.18;100.00
13800;BME280;6971;50.028;9.258;2023-11-21T02:54:14;98774.06;;;7.21;100.00
13800;BME280;6971;50.028;9.258;2023-11-21T02:59:15;98773.44;;;7.33;100.00
13800;BME280;6971;50.028;9.258;2023-11-21T03:04:15;98772.09;;;7.42;100.00
13800;BME280;6971;50.028;9.258;2023-11-21T03:09:17;98770.91;;;7.31;100.00
13800;BME280;6971;50.028;9.258;2023-11-21T03:14:18;98777.91;;;7.31;100.00
13800;BME280;6971;50.028;9.258;2023-11-21T03:19:18;98762.34;;;7.28;100.00
13800;BME280;6971;50.028;9.258;2023-11-21T03:24:19;98756.88;;;7.15;100.00
13800;BME280;6971;50.028;9.258;2023-11-21T03:29:19;98765.03;;;7.09;100.00
13800;BME280;6971;50.028;9.258;2023-11-21T03:34:25;98767.66;;;7.09;100.00
13800;BME280;6971;50.028;9.258;2023-11-21T03:39:26;98768.81;;;7.03;100.00
13800;BME280;6971;50.028;9.258;2023-11-21T03:44:27;98775.88;;;7.01;100.00
13800;BME280;6971;50.028;9.258;2023-11-21T03:49:27;98773.38;;;6.99;100.00
13800;BME280;6971;50.028;9.258;2023-11-21T03:54:29;98772.34;;;6.84;100.00
13800;BME280;6971;50.028;9.258;2023-11-21T03:59:30;98774.59;;;6.92;100.00
13800;BME280;6971;50.028;9.258;2023-11-21T04:04:30;98787.47;;;6.79;100.00
13800;BME280;6971;50.028;9.258;2023-11-21T04:09:31;98798.22;;;6.90;100.00
13800;BME280;6971;50.028;9.258;2023-11-21T04:14:31;98802.47;;;6.93;100.00
13800;BME280;6971;50.028;9.258;2023-11-21T04:19:32;98810.50;;;6.90;100.00
13800;BME280;6971;50.028;9.258;2023-11-21T04:24:32;98808.56;;;6.94;100.00
13800;BME280;6971;50.028;9.258;2023-11-21T04:29:32;98812.03;;;6.94;100.00
13800;BME280;6971;50.028;9.258;2023-11-21T04:34:33;98818.97;;;6.95;100.00
13800;BME280;6971;50.028;9.258;2023-11-21T04:39:33;98818.44;;;6.88;100.00
13800;BME280;6971;50.028;9.258;2023-11-21T04:44:34;98810.91;;;6.81;100.00
13800;BME280;6971;50.028;9.258;2023-11-21T04:49:34;98817.09;;;6.79;100.00
13800;BME280;6971;50.028;9.258;2023-11-21T04:54:35;98819.66;;;6.81;100.00
13800;BME280;6971;50.028;9.258;2023-11-21T04:59:35;98817.03;;;6.81;100.00
13800;BME280;6971;50.028;9.258;2023-11-21T05:04:36;98819.72;;;6.79;100.00
13800;BME280;6971;50.028;9.258;2023-11-21T05:09:36;98830.88;;;6.65;100.00
13800;BME280;6971;50.028;9.258;2023-11-21T05:14:42;98835.13;;;6.49;100.00
13800;BME280;6971;50.028;9.258;2023-11-21T05:19:43;98846.00;;;6.59;100.00
13800;BME280;6971;50.028;9.258;2023-11-21T05:24:45;98852.44;;;6.71;100.00
13800;BME280;6971;50.028;9.258;2023-11-21T05:29:45;98865.81;;;6.64;100.00
13800;BME280;6971;50.028;9.258;2023-11-21T05:34:46;98872.28;;;6.57;100.00
13800;BME280;6971;50.028;9.258;2023-11-21T05:39:46;98885.56;;;6.52;100.00
13800;BME280;6971;50.028;9.258;2023-11-21T05:44:47;98884.63;;;6.53;100.00
13800;BME280;6971;50.028;9.258;2023-11-21T05:49:47;98885.69;;;6.49;100.00
13800;BME280;6971;50.028;9.258;2023-11-21T05:54:50;98887.09;;;6.37;100.00
13800;BME280;6971;50.028;9.258;2023-11-21T05:59:51;98896.72;;;6.56;100.00
13800;BME280;6971;50.028;9.258;2023-11-21T06:04:51;98900.69;;;6.46;100.00
13800;BME280;6971;50.028;9.258;2023-11-21T06:09:52;98911.81;;;6.51;100.00
13800;BME280;6971;50.028;9.258;2023-11-21T06:14:52;98904.94;;;6.48;100.00
13800;BME280;6971;50.028;9.258;2023-11-21T06:19:53;98915.47;;;6.47;100.00
13800;BME280;6971;50.028;9.258;2023-11-21T06:24:53;98917.13;;;6.30;100.00
13800;BME280;6971;50.028;9.258;2023-11-21T06:29:53;98925.44;;;6.38;100.00
13800;BME280;6971;50.028;9.258;2023-11-21T06:34:54;98929.13;;;6.34;100.00
13800;BME280;6971;50.028;9.258;2023-11-21T06:39:54;98938.81;;;6.32;100.00
13800;BME280;6971;50.028;9.258;2023-11-21T06:44:56;98939.31;;;6.40;100.00
13800;BME280;6971;50.028;9.258;2023-11-21T06:49:58;98954.63;;;6.50;100.00
13800;BME280;6971;50.028;9.258;2023-11-21T06:54:59;98964.31;;;6.48;100.00
13800;BME280;6971;50.028;9.258;2023-11-21T06:59:59;98968.69;;;6.47;100.00
13800;BME280;6971;50.028;9.258;2023-11-21T07:05:00;98961.84;;;6.45;100.00
13800;BME280;6971;50.028;9.258;2023-11-21T07:10:00;98977.66;;;6.42;100.00
13800;BME280;6971;50.028;9.258;2023-11-21T07:15:03;98976.44;;;6.50;100.00
13800;BME280;6971;50.028;9.258;2023-11-21T07:20:06;98996.31;;;6.55;100.00
13800;BME280;6971;50.028;9.258;2023-11-21T07:25:07;99004.88;;;6.58;100.00
13800;BME280;6971;50.028;9.258;2023-11-21T07:30:08;99016.19;;;6.59;100.00
13800;BME280;6971;50.028;9.258;2023-11-21T07:35:10;99025.81;;;6.58;100.00
13800;BME280;6971;50.028;9.258;2023-11-21T07:40:10;99032.16;;;6.73;100.00
13800;BME280;6971;50.028;9.258;2023-11-21T07:45:11;99032.91;;;6.75;100.00
13800;BME280;6971;50.028;9.258;2023-11-21T07:50:12;99043.97;;;6.82;100.00
13800;BME280;6971;50.028;9.258;2023-11-21T07:55:13;99042.16;;;6.84;100.00
13800;BME280;6971;50.028;9.258;2023-11-21T08:00:14;99045.13;;;6.96;100.00
13800;BME280;6971;50.028;9.258;2023-11-21T08:05:15;99042.88;;;7.07;100.00
13800;BME280;6971;50.028;9.258;2023-11-21T08:10:15;99050.94;;;7.22;100.00
13800;BME280;6971;50.028;9.258;2023-11-21T08:15:17;99048.69;;;7.33;100.00
13800;BME280;6971;50.028;9.258;2023-11-21T08:20:18;99046.75;;;7.37;100.00
13800;BME280;6971;50.028;9.258;2023-11-21T08:25:18;99056.81;;;7.46;100.00
13800;BME280;6971;50.028;9.258;2023-11-21T08:30:20;99055.78;;;7.68;100.00
13800;BME280;6971;50.028;9.258;2023-11-21T08:35:24;99064.34;;;7.71;100.00
13800;BME280;6971;50.028;9.258;2023-11-21T08:40:24;99062.97;;;7.64;100.00
13800;BME280;6971;50.028;9.258;2023-11-21T08:45:25;99067.41;;;7.81;100.00
13800;BME280;6971;50.028;9.258;2023-11-21T08:50:29;99081.38;;;7.82;100.00
13800;BME280;6971;50.028;9.258;2023-11-21T08:55:29;99092.84;;;7.99;100.00
13800;BME280;6971;50.028;9.258;2023-11-21T09:00:29;99102.09;;;8.06;100.00
13800;BME280;6971;50.028;9.258;2023-11-21T09:05:29;99108.78;;;7.94;100.00
13800;BME280;6971;50.028;9.258;2023-11-21T09:10:30;99124.31;;;8.16;100.00
13800;BME280;6971;50.028;9.258;2023-11-21T09:15:30;99116.75;;;8.10;100.00
13800;BME280;6971;50.028;9.258;2023-11-21T09:20:31;99127.25;;;8.10;100.00
13800;BME280;6971;50.028;9.258;2023-11-21T09:25:32;99124.97;;;8.21;100.00
13800;BME280;6971;50.028;9.258;2023-11-21T09:30:32;99140.56;;;8.25;100.00
13800;BME280;6971;50.028;9.258;2023-11-21T09:35:33;99142.50;;;8.21;100.00
13800;BME280;6971;50.028;9.258;2023-11-21T09:40:34;99146.53;;;8.28;100.00
13800;BME280;6971;50.028;9.258;2023-11-21T09:45:35;99155.56;;;8.40;100.00
13800;BME280;6971;50.028;9.258;2023-11-21T09:50:36;99160.97;;;8.37;100.00
13800;BME280;6971;50.028;9.258;2023-11-21T09:55:37;99161.38;;;8.47;100.00
13800;BME280;6971;50.028;9.258;2023-11-21T10:00:48;99160.38;;;8.49;100.00
13800;BME280;6971;50.028;9.258;2023-11-21T10:05:50;99161.88;;;8.73;100.00
13800;BME280;6971;50.028;9.258;2023-11-21T10:10:53;99164.72;;;8.68;100.00
13800;BME280;6971;50.028;9.258;2023-11-21T10:15:53;99169.03;;;8.87;100.00
13800;BME280;6971;50.028;9.258;2023-11-21T10:20:55;99167.41;;;9.02;100.00
13800;BME280;6971;50.028;9.258;2023-11-21T10:25:57;99172.78;;;9.34;100.00
13800;BME280;6971;50.028;9.258;2023-11-21T10:30:59;99174.34;;;9.87;100.00
13800;BME280;6971;50.028;9.258;2023-11-21T10:35:59;99192.31;;;12.74;100.00
13800;BME280;6971;50.028;9.258;2023-11-21T10:41:01;99194.53;;;10.35;100.00
13800;BME280;6971;50.028;9.258;2023-11-21T10:46:04;99203.53;;;10.63;100.00
13800;BME280;6971;50.028;9.258;2023-11-21T10:51:08;99205.91;;;11.85;100.00
13800;BME280;6971;50.028;9.258;2023-11-21T10:56:13;99205.53;;;11.77;100.00
13800;BME280;6971;50.028;9.258;2023-11-21T11:01:19;99217.84;;;10.26;100.00
13800;BME280;6971;50.028;9.258;2023-11-21T11:06:22;99201.56;;;11.26;100.00
13800;BME280;6971;50.028;9.258;2023-11-21T11:11:26;99212.38;;;13.04;100.00
13800;BME280;6971;50.028;9.258;2023-11-21T11:16:27;99209.09;;;13.53;100.00
13800;BME280;6971;50.028;9.258;2023-11-21T11:27:24;99205.72;;;11.16;100.00
13800;BME280;6971;50.028;9.258;2023-11-21T11:32:43;99210.63;;;12.64;100.00
13800;BME280;6971;50.028;9.258;2023-11-21T11:37:48;99200.97;;;13.69;100.00
13800;BME280;6971;50.028;9.258;2023-11-21T11:42:56;99213.03;;;12.40;100.00
13800;BME280;6971;50.028;9.258;2023-11-21T11:47:59;99205.91;;;11.13;100.00
13800;BME280;6971;50.028;9.258;2023-11-21T11:53:14;99202.88;;;11.04;100.00
13800;BME280;6971;50.028;9.258;2023-11-21T11:58:15;99215.53;;;10.52;100.00
13800;BME280;6971;50.028;9.258;2023-11-21T12:03:15;99211.97;;;10.21;100.00
13800;BME280;6971;50.028;9.258;2023-11-21T12:08:17;99216.13;;;10.25;100.00
13800;BME280;6971;50.028;9.258;2023-11-21T12:13:17;99210.44;;;10.33;100.00
13800;BME280;6971;50.028;9.258;2023-11-21T12:18:18;99220.19;;;9.99;100.00
13800;BME280;6971;50.028;9.258;2023-11-21T12:23:19;99226.13;;;10.02;100.00
13800;BME280;6971;50.028;9.258;2023-11-21T12:28:21;99228.03;;;10.00;100.00
13800;BME280;6971;50.028;9.258;2023-11-21T12:33:23;99234.97;;;9.85;100.00
13800;BME280;6971;50.028;9.258;2023-11-21T12:38:33;99235.47;;;9.92;100.00
13800;BME280;6971;50.028;9.258;2023-11-21T12:43:34;99237.28;;;10.24;100.00
13800;BME280;6971;50.028;9.258;2023-11-21T12:48:38;99251.81;;;10.63;100.00
13800;BME280;6971;50.028;9.258;2023-11-21T12:53:45;99249.34;;;10.28;100.00
13800;BME280;6971;50.028;9.258;2023-11-21T12:58:47;99256.38;;;10.60;100.00
13800;BME280;6971;50.028;9.258;2023-11-21T13:03:48;99248.94;;;10.03;100.00
13800;BME280;6971;50.028;9.258;2023-11-21T13:08:50;99247.63;;;9.78;100.00
13800;BME280;6971;50.028;9.258;2023-11-21T13:13:51;99253.97;;;9.74;100.00
13800;BME280;6971;50.028;9.258;2023-11-21T13:18:53;99254.63;;;9.62;100.00
13800;BME280;6971;50.028;9.258;2023-11-21T13:23:54;99266.75;;;9.64;100.00
13800;BME280;6971;50.028;9.258;2023-11-21T13:28:54;99258.16;;;9.45;100.00
13800;BME280;6971;50.028;9.258;2023-11-21T13:33:56;99268.50;;;9.48;100.00
13800;BME280;6971;50.028;9.258;2023-11-21T13:38:59;99279.28;;;9.25;100.00
13800;BME280;6971;50.028;9.258;2023-11-21T13:44:04;99278.59;;;9.22;100.00
13800;BME280;6971;50.028;9.258;2023-11-21T13:49:26;99279.41;;;9.22;100.00
13800;BME280;6971;50.028;9.258;2023-11-21T13:54:26;99287.41;;;9.03;100.00
13800;BME280;6971;50.028;9.258;2023-11-21T13:59:29;99293.88;;;8.96;100.00
13800;BME280;6971;50.028;9.258;2023-11-21T14:04:32;99308.81;;;8.95;100.00
13800;BME280;6971;50.028;9.258;2023-11-21T14:09:54;99306.31;;;8.74;100.00
13800;BME280;6971;50.028;9.258;2023-11-21T14:14:56;99312.97;;;8.82;100.00
13800;BME280;6971;50.028;9.258;2023-11-21T14:19:56;99317.69;;;8.56;100.00
13800;BME280;6971;50.028;9.258;2023-11-21T14:24:56;99316.41;;;8.65;100.00
13800;BME280;6971;50.028;9.258;2023-11-21T14:30:00;99323.72;;;8.58;100.00
13800;BME280;6971;50.028;9.258;2023-11-21T14:35:00;99324.91;;;8.51;100.00
13800;BME280;6971;50.028;9.258;2023-11-21T14:40:00;99331.66;;;8.37;100.00
13800;BME280;6971;50.028;9.258;2023-11-21T14:45:01;99330.16;;;8.51;100.00
13800;BME280;6971;50.028;9.258;2023-11-21T14:50:06;99333.72;;;8.30;100.00
13800;BME280;6971;50.028;9.258;2023-11-21T14:55:27;99346.81;;;8.11;100.00
13800;BME280;6971;50.028;9.258;2023-11-21T15:00:32;99354.44;;;8.17;100.00
13800;BME280;6971;50.028;9.258;2023-11-21T15:05:35;99355.84;;;8.05;100.00
13800;BME280;6971;50.028;9.258;2023-11-21T15:10:35;99369.69;;;7.88;100.00
13800;BME280;6971;50.028;9.258;2023-11-21T15:15:46;99378.50;;;7.87;100.00
13800;BME280;6971;50.028;9.258;2023-11-21T15:20:47;99370.22;;;7.96;100.00
13800;BME280;6971;50.028;9.258;2023-11-21T15:25:47;99373.38;;;7.84;100.00
13800;BME280;6971;50.028;9.258;2023-11-21T15:30:47;99379.47;;;7.64;100.00
13800;BME280;6971;50.028;9.258;2023-11-21T15:35:51;99375.50;;;7.55;100.00
13800;BME280;6971;50.028;9.258;2023-11-21T15:40:51;99378.50;;;7.46;100.00
13800;BME280;6971;50.028;9.258;2023-11-21T15:45:52;99382.19;;;7.41;100.00
13800;BME280;6971;50.028;9.258;2023-11-21T15:50:52;99395.00;;;7.48;100.00
13800;BME280;6971;50.028;9.258;2023-11-21T15:55:57;99389.72;;;7.49;100.00
13800;BME280;6971;50.028;9.258;2023-11-21T16:00:57;99392.28;;;7.28;100.00
13800;BME280;6971;50.028;9.258;2023-11-21T16:05:57;99404.84;;;7.20;100.00
13800;BME280;6971;50.028;9.258;2023-11-21T16:10:58;99421.63;;;7.38;100.00
13800;BME280;6971;50.028;9.258;2023-11-21T16:16:00;99418.13;;;7.38;100.00
13800;BME280;6971;50.028;9.258;2023-11-21T16:21:01;99426.94;;;7.37;100.00
13800;BME280;6971;50.028;9.258;2023-11-21T16:26:01;99438.38;;;7.34;100.00
13800;BME280;6971;50.028;9.258;2023-11-21T16:31:02;99431.44;;;7.33;100.00
13800;BME280;6971;50.028;9.258;2023-11-21T16:36:02;99447.28;;;7.30;100.00
13800;BME280;6971;50.028;9.258;2023-11-21T16:41:03;99446.91;;;7.39;100.00
13800;BME280;6971;50.028;9.258;2023-11-21T16:46:03;99455.81;;;7.35;100.00
13800;BME280;6971;50.028;9.258;2023-11-21T16:51:04;99469.50;;;7.21;100.00
13800;BME280;6971;50.028;9.258;2023-11-21T16:56:06;99467.72;;;7.22;100.00
13800;BME280;6971;50.028;9.258;2023-11-21T17:01:07;99478.03;;;7.26;100.00
13800;BME280;6971;50.028;9.258;2023-11-21T17:06:08;99482.28;;;7.29;100.00
13800;BME280;6971;50.028;9.258;2023-11-21T17:11:10;99487.59;;;7.27;100.00
13800;BME280;6971;50.028;9.258;2023-11-21T17:16:13;99497.22;;;7.27;100.00
13800;BME280;6971;50.028;9.258;2023-11-21T17:21:14;99508.00;;;7.19;100.00
13800;BME280;6971;50.028;9.258;2023-11-21T17:26:15;99503.28;;;7.05;100.00
13800;BME280;6971;50.028;9.258;2023-11-21T17:31:17;99507.69;;;7.27;100.00
13800;BME280;6971;50.028;9.258;2023-11-21T17:36:20;99511.91;;;7.31;100.00
13800;BME280;6971;50.028;9.258;2023-11-21T17:41:21;99514.06;;;7.21;100.00
13800;BME280;6971;50.028;9.258;2023-11-21T17:46:22;99508.97;;;7.16;100.00
13800;BME280;6971;50.028;9.258;2023-11-21T17:51:22;99524.59;;;7.20;100.00
13800;BME280;6971;50.028;9.258;2023-11-21T17:56:23;99531.53;;;7.21;100.00
13800;BME280;6971;50.028;9.258;2023-11-21T18:01:23;99529.09;;;7.16;100.00
13800;BME280;6971;50.028;9.258;2023-11-21T18:06:24;99538.50;;;7.22;100.00
13800;BME280;6971;50.028;9.258;2023-11-21T18:11:24;99543.34;;;7.09;100.00
13800;BME280;6971;50.028;9.258;2023-11-21T18:16:24;99557.13;;;7.14;100.00
13800;BME280;6971;50.028;9.258;2023-11-21T18:21:25;99558.13;;;7.11;100.00
13800;BME280;6971;50.028;9.258;2023-11-21T18:26:25;99552.69;;;7.16;100.00
13800;BME280;6971;50.028;9.258;2023-11-21T18:31:26;99555.44;;;7.13;100.00
13800;BME280;6971;50.028;9.258;2023-11-21T18:36:26;99565.09;;;7.11;100.00
13800;BME280;6971;50.028;9.258;2023-11-21T18:41:26;99573.75;;;6.89;100.00
13800;BME280;6971;50.028;9.258;2023-11-21T18:46:27;99584.47;;;6.83;100.00
13800;BME280;6971;50.028;9.258;2023-11-21T18:51:27;99591.09;;;6.93;100.00
13800;BME280;6971;50.028;9.258;2023-11-21T18:56:27;99594.03;;;6.84;100.00
13800;BME280;6971;50.028;9.258;2023-11-21T19:01:30;99596.31;;;6.93;100.00
13800;BME280;6971;50.028;9.258;2023-11-21T19:06:30;99602.59;;;6.89;100.00
13800;BME280;6971;50.028;9.258;2023-11-21T19:11:32;99611.59;;;6.82;100.00
13800;BME280;6971;50.028;9.258;2023-11-21T19:16:34;99624.56;;;6.85;100.00
13800;BME280;6971;50.028;9.258;2023-11-21T19:21:34;99640.28;;;6.85;100.00
13800;BME280;6971;50.028;9.258;2023-11-21T19:26:37;99654.28;;;6.84;100.00
13800;BME280;6971;50.028;9.258;2023-11-21T19:31:38;99667.25;;;6.88;100.00
13800;BME280;6971;50.028;9.258;2023-11-21T19:36:39;99684.00;;;6.57;100.00
13800;BME280;6971;50.028;9.258;2023-11-21T19:41:41;99683.44;;;6.47;100.00
13800;BME280;6971;50.028;9.258;2023-11-21T19:46:42;99692.00;;;6.52;100.00
13800;BME280;6971;50.028;9.258;2023-11-21T19:51:42;99704.84;;;6.33;100.00
13800;BME280;6971;50.028;9.258;2023-11-21T19:56:43;99707.63;;;5.98;100.00
13800;BME280;6971;50.028;9.258;2023-11-21T20:01:43;99722.25;;;5.75;100.00
13800;BME280;6971;50.028;9.258;2023-11-21T20:06:44;99733.75;;;5.70;100.00
13800;BME280;6971;50.028;9.258;2023-11-21T20:11:44;99734.38;;;5.78;100.00
13800;BME280;6971;50.028;9.258;2023-11-21T20:16:46;99739.69;;;5.43;100.00
13800;BME280;6971;50.028;9.258;2023-11-21T20:21:47;99756.22;;;5.45;100.00
13800;BME280;6971;50.028;9.258;2023-11-21T20:26:49;99773.56;;;5.48;100.00
13800;BME280;6971;50.028;9.258;2023-11-21T20:31:50;99782.94;;;5.57;100.00
13800;BME280;6971;50.028;9.258;2023-11-21T20:36:51;99806.22;;;5.66;100.00
13800;BME280;6971;50.028;9.258;2023-11-21T20:41:52;99809.38;;;5.46;100.00
13800;BME280;6971;50.028;9.258;2023-11-21T20:46:52;99822.13;;;5.23;100.00
13800;BME280;6971;50.028;9.258;2023-11-21T20:51:56;99819.25;;;5.34;100.00
13800;BME280;6971;50.028;9.258;2023-11-21T20:56:56;99818.81;;;5.17;100.00
13800;BME280;6971;50.028;9.258;2023-11-21T21:01:57;99819.59;;;5.20;100.00
13800;BME280;6971;50.028;9.258;2023-11-21T21:06:57;99824.25;;;5.09;100.00
13800;BME280;6971;50.028;9.258;2023-11-21T21:11:58;99831.66;;;5.26;100.00
13800;BME280;6971;50.028;9.258;2023-11-21T21:16:58;99844.41;;;5.04;100.00
13800;BME280;6971;50.028;9.258;2023-11-21T21:22:00;99847.09;;;5.01;100.00
13800;BME280;6971;50.028;9.258;2023-11-21T21:27:01;99852.28;;;5.02;100.00
13800;BME280;6971;50.028;9.258;2023-11-21T21:32:01;99862.78;;;4.99;100.00
13800;BME280;6971;50.028;9.258;2023-11-21T21:37:02;99879.59;;;4.89;100.00
13800;BME280;6971;50.028;9.258;2023-11-21T21:42:02;99888.28;;;4.88;100.00
13800;BME280;6971;50.028;9.258;2023-11-21T21:47:03;99897.22;;;4.79;100.00
13800;BME280;6971;50.028;9.258;2023-11-21T21:52:03;99911.16;;;4.37;100.00
13800;BME280;6971;50.028;9.258;2023-11-21T21:57:04;99897.88;;;4.48;100.00
13800;BME280;6971;50.028;9.258;2023-11-21T22:02:04;99913.28;;;4.60;100.00
13800;BME280;6971;50.028;9.258;2023-11-21T22:07:05;99902.19;;;4.50;100.00
13800;BME280;6971;50.028;9.258;2023-11-21T22:12:06;99909.72;;;4.64;100.00
13800;BME280;6971;50.028;9.258;2023-11-21T22:17:07;99928.66;;;4.31;100.00
13800;BME280;6971;50.028;9.258;2023-11-21T22:22:07;99934.16;;;4.16;100.00
13800;BME280;6971;50.028;9.258;2023-11-21T22:27:07;99944.50;;;4.22;100.00
13800;BME280;6971;50.028;9.258;2023-11-21T22:32:08;99951.31;;;4.29;100.00
13800;BME280;6971;50.028;9.258;2023-11-21T22:37:08;99955.38;;;4.43;100.00
13800;BME280;6971;50.028;9.258;2023-11-21T22:42:09;99970.59;;;4.22;100.00
13800;BME280;6971;50.028;9.258;2023-11-21T22:47:10;99975.53;;;4.36;100.00
13800;BME280;6971;50.028;9.258;2023-11-21T22:52:10;99984.63;;;4.15;100.00
13800;BME280;6971;50.028;9.258;2023-11-21T22:57:10;99986.25;;;4.22;100.00
13800;BME280;6971;50.028;9.258;2023-11-21T23:02:14;99983.16;;;4.00;100.00
13800;BME280;6971;50.028;9.258;2023-11-21T23:07:14;99998.22;;;3.84;100.00
13800;BME280;6971;50.028;9.258;2023-11-21T23:12:15;100000.22;;;3.68;100.00
13800;BME280;6971;50.028;9.258;2023-11-21T23:17:15;99995.84;;;3.70;100.00
13800;BME280;6971;50.028;9.258;2023-11-21T23:22:17;100016.97;;;3.52;100.00
13800;BME280;6971;50.028;9.258;2023-11-21T23:27:17;100021.25;;;3.58;100.00
13800;BME280;6971;50.028;9.258;2023-11-21T23:32:18;100009.47;;;3.31;100.00
13800;BME280;6971;50.028;9.258;2023-11-21T23:37:20;100009.81;;;3.07;100.00
13800;BME280;6971;50.028;9.258;2023-11-21T23:42:20;100010.06;;;2.87;100.00
13800;BME280;6971;50.028;9.258;2023-11-21T23:47:20;100003.41;;;2.66;100.00
13800;BME280;6971;50.028;9.258;2023-11-21T23:52:21;100007.91;;;2.51;100.00
13800;BME280;6971;50.028;9.258;2023-11-21T23:57:22;100012.44;;;2.32;100.00
